Tanna Airport
NVVW : now visible

Airfield :











YOU CAN JOIN US ON...

 
LOGIN :

Register | Disclaimer

   EN    FR    IT 

 









Legend :    VFR   Marginal VFR   IFR   Intensive IFR   Very Intensive IFR
Visi :
Ceiling :
>= 8 km
>= 3000ft
5 to 8 km
1000 to 3000 ft
1500m to 5 km
500 to 1000 ft
800 to 1500m
200 to 500 ft
< 800m
< 200 ft
Symbols :   Thunderstorms  Fog  Heavy snow  Heavy precipitations  Wind > 20 kt






- Airport Elevation : 19 ft
- IATA code : TAH


NVVW - Tanna

CURRENT METAR :
  • 031700Z AUTO 09002KT //// // NCD 23/22 Q1006

EXPIRED METARs :
  • 031600Z AUTO 12003KT //// // NCD 24/23 Q1006
  • 031500Z AUTO 13002KT //// // NCD 23/22 Q1006
  • 031400Z AUTO 18001KT //// // NCD 24/23 Q1007

TAF TAF NVVW
Valid from the 03 at 12:00 until the 04 at 12:00 UTC


031000Z 0312/0412 08010KT 9999 BKN022 OVC040 INTER 0312/0318 8000 SHRA FEW010 BKN018 OVC038



MET'MAP, your aeronautical weather chart ! - Copyright ORBIFLY December 2007 - Disclaimer

ORBIFLY MET'MAP TEAM :

Programming & Development : Alexandra Zaïnal
Concept & original design : Baudouin d'Aumeries
Assistance for programming : Marc-Olivier Méhu
Technical & hardware support : Manuel Goepfert

Contact : metmap@orbifly.com




SOURCES & CREDITS :

   NOAA       Earth
Advisory